Time;durP1;ratioP1;P1;durP2;ratioP2;P2;SDS_P1;SDS_P2;PMS_P1;PMS_P2;Temp;Humidity;BMP_temperature;BMP_pressure;BME280_temperature;BME280_humidity;BME280_pressure;Samples;Min_cycle;Max_cycle;Signal;HPM_P1;HPM_P2
2022/05/05 00:00:16;;;;;;;0.60;0.60;;;5.30;99.90;;;;;;5031642;28;20047;-80
2022/05/05 00:02:42;;;;;;;0.60;0.60;;;5.30;99.90;;;;;;5016266;28;20401;-79
2022/05/05 00:05:09;;;;;;;0.50;0.50;;;5.30;99.90;;;;;;5029226;28;20037;-79
2022/05/05 00:07:35;;;;;;;0.70;0.70;;;5.30;99.90;;;;;;5042714;28;20048;-80
2022/05/05 00:14:23;;;;;;;0.60;0.60;;;5.30;99.90;;;;;;5030731;28;20053;-82
2022/05/05 00:15:32;;;;;;;0.65;0.65;;;5.40;99.90;;;;;;5038676;28;20045;-79
2022/05/05 00:17:58;;;;;;;0.60;0.60;;;5.40;99.90;;;;;;5029363;28;20048;-79
2022/05/05 00:20:23;;;;;;;0.60;0.60;;;5.70;99.90;;;;;;5028194;28;20416;-79
2022/05/05 00:22:49;;;;;;;0.60;0.60;;;5.40;99.90;;;;;;5024920;28;20046;-79
2022/05/05 00:25:15;;;;;;;0.60;0.60;;;5.60;99.90;;;;;;5027393;28;20375;-78
2022/05/05 00:27:40;;;;;;;0.70;0.70;;;5.50;99.90;;;;;;5043628;28;20441;-78
2022/05/05 00:30:07;;;;;;;0.70;0.70;;;5.50;99.90;;;;;;5033114;28;20044;-78
2022/05/05 00:32:32;;;;;;;0.57;0.57;;;5.50;99.90;;;;;;5007080;28;20414;-78
2022/05/05 00:34:59;;;;;;;0.50;0.50;;;5.50;99.90;;;;;;5041327;28;20133;-79
2022/05/05 00:37:25;;;;;;;0.60;0.60;;;5.50;99.90;;;;;;5012575;28;20037;-80
2022/05/05 00:39:50;;;;;;;0.65;0.65;;;5.50;99.90;;;;;;5015089;28;20508;-79
2022/05/05 00:42:16;;;;;;;0.63;0.63;;;5.50;99.90;;;;;;5015097;28;20135;-80
2022/05/05 00:44:42;;;;;;;;;;;5.40;99.90;;;;;;5044092;28;20052;-80
2022/05/05 00:47:08;;;;;;;0.60;0.60;;;5.50;99.90;;;;;;5027936;28;20411;-80
2022/05/05 00:49:35;;;;;;;0.60;0.60;;;5.50;99.90;;;;;;5045601;28;20095;-79
2022/05/05 00:52:02;;;;;;;0.50;0.50;;;5.50;99.90;;;;;;5028554;28;20041;-80
2022/05/05 00:54:28;;;;;;;0.70;0.70;;;5.50;99.90;;;;;;5014625;28;20040;-79
2022/05/05 00:56:54;;;;;;;0.70;0.70;;;5.50;99.90;;;;;;5007739;28;20072;-79
2022/05/05 00:59:25;;;;;;;0.60;0.60;;;5.50;99.90;;;;;;5029693;28;20052;-79
2022/05/05 01:01:51;;;;;;;0.50;0.50;;;5.60;99.90;;;;;;5026537;28;20385;-79
2022/05/05 01:04:17;;;;;;;0.50;0.50;;;5.60;99.90;;;;;;5012795;28;20435;-79
2022/05/05 01:06:44;;;;;;;0.57;0.57;;;5.60;99.90;;;;;;5042787;28;20128;-79
2022/05/05 01:09:11;;;;;;;0.50;0.50;;;5.70;99.90;;;;;;5011795;28;20128;-80
2022/05/05 01:11:37;;;;;;;0.60;0.60;;;5.60;99.90;;;;;;5036172;28;20098;-79
2022/05/05 01:14:03;;;;;;;0.70;0.70;;;5.70;99.90;;;;;;5042334;28;20144;-80
2022/05/05 01:16:29;;;;;;;;;;;5.60;99.90;;;;;;5029170;28;20115;-79
2022/05/05 01:18:55;;;;;;;0.63;0.63;;;5.70;99.90;;;;;;5026448;28;20004;-80
2022/05/05 01:21:21;;;;;;;0.57;0.57;;;5.60;99.90;;;;;;5022694;28;20459;-81
2022/05/05 01:23:47;;;;;;;0.50;0.50;;;5.70;99.90;;;;;;5015162;28;20041;-79
2022/05/05 01:28:59;;;;;;;0.60;0.60;;;5.70;99.90;;;;;;5043940;28;20049;-78
2022/05/05 01:31:24;;;;;;;0.60;0.60;;;5.70;99.90;;;;;;5050537;28;20394;-80
2022/05/05 01:33:50;;;;;;;0.77;0.77;;;5.70;99.90;;;;;;5047560;28;20045;-78
2022/05/05 01:36:16;;;;;;;0.43;0.43;;;5.80;99.90;;;;;;5048226;28;20091;-78
2022/05/05 01:38:43;;;;;;;0.60;0.60;;;5.80;99.90;;;;;;5017339;28;20110;-78
2022/05/05 01:41:14;;;;;;;0.60;0.60;;;5.80;99.90;;;;;;5007083;28;20513;-79
2022/05/05 01:43:42;;;;;;;0.52;0.52;;;5.80;99.90;;;;;;5048966;28;20048;-79
2022/05/05 01:46:08;;;;;;;0.52;0.52;;;5.80;99.90;;;;;;5024493;28;20053;-77
2022/05/05 01:48:35;;;;;;;0.60;0.60;;;5.90;99.90;;;;;;5031726;28;20470;-79
2022/05/05 01:51:01;;;;;;;0.50;0.50;;;5.90;99.90;;;;;;5050480;28;20404;-79
2022/05/05 01:53:27;;;;;;;0.60;0.60;;;5.90;99.90;;;;;;5029553;28;20103;-79
2022/05/05 01:55:53;;;;;;;0.65;0.65;;;5.90;99.90;;;;;;5044620;28;20037;-80
2022/05/05 01:58:19;;;;;;;0.50;0.50;;;6.00;99.90;;;;;;5034049;28;20033;-78
2022/05/05 02:00:45;;;;;;;0.60;0.60;;;6.00;99.90;;;;;;5034344;28;20845;-79
2022/05/05 02:03:13;;;;;;;;;;;6.00;99.90;;;;;;5028528;28;20041;-77
2022/05/05 02:05:44;;;;;;;0.52;0.52;;;6.00;99.90;;;;;;5034177;28;20317;-79
2022/05/05 02:08:10;;;;;;;0.60;0.60;;;6.00;99.90;;;;;;5047983;28;20080;-79
2022/05/05 02:10:36;;;;;;;0.60;0.60;;;6.00;99.90;;;;;;5028326;28;20437;-79
2022/05/05 02:13:03;;;;;;;0.60;0.60;;;6.00;99.90;;;;;;5032653;28;20072;-79
2022/05/05 02:15:29;;;;;;;0.50;0.50;;;6.00;99.90;;;;;;5023169;28;20491;-79
2022/05/05 02:17:56;;;;;;;0.63;0.63;;;6.00;99.90;;;;;;5008352;28;20049;-79
2022/05/05 02:20:22;;;;;;;0.60;0.60;;;6.00;99.90;;;;;;5023970;28;20398;-78
2022/05/05 02:22:48;;;;;;;0.55;0.55;;;5.90;99.90;;;;;;5010194;28;20049;-78
2022/05/05 02:25:13;;;;;;;0.63;0.63;;;5.90;99.90;;;;;;5030671;28;20160;-80
2022/05/05 02:27:49;;;;;;;0.52;0.52;;;5.90;99.90;;;;;;5045475;28;20060;-78
2022/05/05 02:30:16;;;;;;;0.57;0.57;;;5.80;99.90;;;;;;5024419;28;20037;-78
2022/05/05 02:32:42;;;;;;;0.60;0.60;;;5.80;99.90;;;;;;5042533;28;20052;-79
2022/05/05 02:35:09;;;;;;;0.60;0.60;;;5.80;99.90;;;;;;5016442;28;20033;-78
2022/05/05 02:40:20;;;;;;;0.60;0.60;;;5.70;99.90;;;;;;5033536;28;20087;-78
2022/05/05 02:42:45;;;;;;;0.68;0.68;;;5.70;99.90;;;;;;5027149;28;20402;-77
2022/05/05 02:45:11;;;;;;;0.60;0.60;;;5.70;99.90;;;;;;5033316;28;20064;-79
2022/05/05 02:47:37;;;;;;;0.60;0.60;;;5.70;99.90;;;;;;5033377;28;20041;-79
2022/05/05 02:50:04;;;;;;;0.60;0.60;;;5.70;99.90;;;;;;5014402;28;20094;-78
2022/05/05 02:52:29;;;;;;;0.60;0.60;;;5.70;99.90;;;;;;5025367;28;20037;-78
2022/05/05 02:54:56;;;;;;;0.60;0.60;;;5.70;99.90;;;;;;5012576;28;20481;-80
2022/05/05 02:57:23;;;;;;;0.60;0.60;;;5.80;99.90;;;;;;5032903;28;20116;-79
2022/05/05 02:59:55;;;;;;;0.60;0.60;;;5.60;99.90;;;;;;5018169;28;20053;-79
2022/05/05 03:02:22;;;;;;;0.50;0.50;;;5.90;99.90;;;;;;5045594;28;20045;-78
2022/05/05 03:04:48;;;;;;;0.60;0.60;;;5.90;99.90;;;;;;5029232;28;20028;-79
2022/05/05 03:07:15;;;;;;;0.60;0.60;;;5.80;99.90;;;;;;5001334;28;20445;-79
2022/05/05 03:09:41;;;;;;;0.50;0.50;;;5.90;99.90;;;;;;5041428;28;20045;-79
2022/05/05 03:12:08;;;;;;;0.60;0.60;;;5.90;99.90;;;;;;5015568;28;20044;-80
2022/05/05 03:14:34;;;;;;;0.50;0.50;;;6.00;99.90;;;;;;5029205;28;20041;-81
2022/05/05 03:17:00;;;;;;;0.50;0.50;;;6.00;99.90;;;;;;5037090;28;20565;-78
2022/05/05 03:19:26;;;;;;;0.70;0.70;;;6.00;99.90;;;;;;5064683;28;20032;-79
2022/05/05 03:21:53;;;;;;;0.50;0.50;;;6.10;99.90;;;;;;5044529;28;20113;-80
2022/05/05 03:24:20;;;;;;;0.70;0.70;;;6.20;99.90;;;;;;5042134;28;20039;-79
2022/05/05 03:26:46;;;;;;;0.50;0.50;;;6.20;99.90;;;;;;5047640;28;20449;-79
2022/05/05 03:29:12;;;;;;;0.52;0.52;;;6.30;99.90;;;;;;5015820;28;20049;-80
2022/05/05 03:31:39;;;;;;;0.77;0.77;;;6.30;99.90;;;;;;5032931;28;20041;-79
2022/05/05 03:34:07;;;;;;;0.60;0.60;;;6.50;99.90;;;;;;5032723;28;20416;-80
2022/05/05 03:36:33;;;;;;;0.55;0.55;;;6.40;99.90;;;;;;5043313;28;20064;-80
2022/05/05 03:39:00;;;;;;;;;;;6.30;99.90;;;;;;5020640;28;20348;-79
2022/05/05 03:41:26;;;;;;;0.60;0.60;;;6.50;99.90;;;;;;5043599;28;19944;-79
2022/05/05 03:43:52;;;;;;;;;;;6.60;99.90;;;;;;5028797;28;20120;-80
2022/05/05 03:46:20;;;;;;;0.50;0.50;;;6.70;99.90;;;;;;5009591;28;20343;-79
2022/05/05 03:48:52;;;;;;;0.65;0.65;;;6.70;99.90;;;;;;5044655;28;20033;-79
2022/05/05 03:51:18;;;;;;;0.70;0.70;;;6.70;99.90;;;;;;5011050;28;20383;-79
2022/05/05 03:53:47;;;;;;;0.52;0.52;;;6.70;99.90;;;;;;5023344;28;20037;-80
2022/05/05 03:56:12;;;;;;;0.60;0.60;;;6.70;99.90;;;;;;5028066;28;20390;-79
2022/05/05 03:58:38;;;;;;;0.60;0.60;;;6.80;99.90;;;;;;5027872;28;20048;-80
2022/05/05 04:01:05;;;;;;;0.40;0.40;;;6.80;99.90;;;;;;5013249;28;20199;-78
2022/05/05 04:03:32;;;;;;;0.40;0.40;;;6.90;99.90;;;;;;5027670;28;20407;-78
2022/05/05 04:06:02;;;;;;;0.65;0.65;;;6.90;99.90;;;;;;5040416;28;20048;-79
2022/05/05 04:08:29;;;;;;;0.60;0.60;;;6.90;99.90;;;;;;5019336;28;20041;-77
2022/05/05 04:10:54;;;;;;;;;;;6.90;99.90;;;;;;5032181;28;20394;-79
2022/05/05 04:13:27;;;;;;;0.57;0.57;;;6.90;99.90;;;;;;5040836;28;19924;-78
2022/05/05 04:15:53;;;;;;;0.50;0.50;;;6.90;99.90;;;;;;5049939;28;20036;-77
2022/05/05 04:18:20;;;;;;;0.50;0.50;;;7.00;99.90;;;;;;5030049;28;20095;-78
2022/05/05 04:20:50;;;;;;;0.52;0.52;;;7.00;99.90;;;;;;5029299;28;20043;-78
2022/05/05 04:23:16;;;;;;;0.60;0.60;;;7.00;99.90;;;;;;5036645;28;20032;-79
2022/05/05 04:25:43;;;;;;;0.50;0.50;;;7.10;99.90;;;;;;5051428;28;20342;-79
2022/05/05 04:28:10;;;;;;;0.50;0.50;;;7.10;99.90;;;;;;5030652;28;20555;-78
2022/05/05 04:30:40;;;;;;;0.50;0.50;;;7.20;99.90;;;;;;5051291;28;20057;-79
2022/05/05 04:33:07;;;;;;;0.40;0.40;;;7.20;99.90;;;;;;5051451;28;20449;-79
2022/05/05 04:35:34;;;;;;;0.50;0.50;;;7.20;99.90;;;;;;5050922;28;20048;-78
2022/05/05 04:38:00;;;;;;;0.50;0.50;;;7.30;99.90;;;;;;5040252;28;20124;-78
2022/05/05 04:40:26;;;;;;;0.60;0.60;;;7.30;99.90;;;;;;5015046;28;20128;-78
2022/05/05 04:42:52;;;;;;;0.57;0.57;;;7.30;99.90;;;;;;5032730;28;20482;-79
2022/05/05 04:45:17;;;;;;;0.60;0.60;;;7.30;99.90;;;;;;5034753;28;20041;-78
2022/05/05 04:47:43;;;;;;;0.45;0.45;;;7.30;99.90;;;;;;5012897;28;20060;-79
2022/05/05 04:50:14;;;;;;;1.05;1.05;;;7.40;99.90;;;;;;5045808;28;20033;-79
2022/05/05 04:52:39;;;;;;;0.60;0.60;;;7.40;99.90;;;;;;5017702;28;20044;-78
2022/05/05 04:55:05;;;;;;;0.40;0.40;;;7.50;99.90;;;;;;5012876;28;20052;-78
2022/05/05 04:57:31;;;;;;;0.60;0.60;;;7.50;99.90;;;;;;5032519;28;20083;-78
2022/05/05 04:59:59;;;;;;;0.70;0.70;;;7.50;99.90;;;;;;5030999;28;20041;-78
2022/05/05 05:02:24;;;;;;;0.60;0.60;;;7.60;99.90;;;;;;5046179;28;20060;-78
2022/05/05 05:04:50;;;;;;;0.52;0.52;;;7.60;99.90;;;;;;5017818;28;20041;-79
2022/05/05 05:07:19;;;;;;;0.55;0.55;;;7.70;99.90;;;;;;5051442;28;20394;-78
2022/05/05 05:09:45;;;;;;;0.70;0.70;;;7.40;99.90;;;;;;5032120;28;20055;-78
2022/05/05 05:12:11;;;;;;;0.60;0.60;;;7.80;99.90;;;;;;5044389;28;20068;-79
2022/05/05 05:14:36;;;;;;;0.70;0.70;;;7.80;99.90;;;;;;5031533;28;20045;-79
2022/05/05 05:17:03;;;;;;;0.40;0.40;;;7.90;99.90;;;;;;5034656;28;20048;-78
2022/05/05 05:19:28;;;;;;;1.95;0.90;;;7.90;99.90;;;;;;5016500;28;20044;-79
2022/05/05 05:21:54;;;;;;;0.50;0.50;;;8.00;99.90;;;;;;5008794;28;20044;-79
2022/05/05 05:24:23;;;;;;;0.50;0.50;;;8.00;99.90;;;;;;5029054;28;20067;-79
2022/05/05 05:26:49;;;;;;;0.35;0.35;;;8.10;99.90;;;;;;5035077;28;20459;-79
2022/05/05 05:29:16;;;;;;;0.50;0.50;;;8.20;99.90;;;;;;5012347;28;20128;-78
2022/05/05 05:31:43;;;;;;;0.40;0.40;;;8.20;99.90;;;;;;5011667;28;20045;-80
2022/05/05 05:34:09;;;;;;;0.40;0.40;;;8.30;99.90;;;;;;5038960;28;20124;-79
2022/05/05 05:36:34;;;;;;;0.50;0.50;;;8.30;99.90;;;;;;5016808;28;20067;-79
2022/05/05 05:39:00;;;;;;;0.40;0.40;;;9.00;99.90;;;;;;5031569;28;20072;-79
2022/05/05 05:41:26;;;;;;;0.60;0.60;;;8.40;99.90;;;;;;5038534;28;20131;-79
2022/05/05 05:43:52;;;;;;;0.50;0.50;;;8.50;99.90;;;;;;5015500;28;20037;-80
2022/05/05 05:46:17;;;;;;;0.40;0.40;;;8.50;99.90;;;;;;5017575;28;20045;-79
2022/05/05 05:48:43;;;;;;;0.40;0.40;;;8.50;99.90;;;;;;5015198;28;20471;-79
2022/05/05 05:51:09;;;;;;;0.40;0.40;;;8.60;99.90;;;;;;5043755;28;20041;-78
2022/05/05 05:53:34;;;;;;;0.45;0.45;;;8.60;99.90;;;;;;5041804;28;20552;-79
2022/05/05 05:56:00;;;;;;;0.55;0.55;;;8.70;99.90;;;;;;5018344;28;20098;-79
2022/05/05 05:58:26;;;;;;;0.73;0.73;;;8.70;99.90;;;;;;5032926;28;20059;-78
2022/05/05 06:00:51;;;;;;;0.40;0.40;;;8.80;99.90;;;;;;5042765;28;20044;-78
2022/05/05 06:06:02;;;;;;;0.93;0.93;;;8.90;99.90;;;;;;5046001;28;20037;-79
2022/05/05 06:08:27;;;;;;;;;;;9.00;99.90;;;;;;5032436;28;20068;-77
2022/05/05 06:10:53;;;;;;;0.60;0.60;;;9.10;99.90;;;;;;5047830;28;20003;-79
2022/05/05 06:13:19;;;;;;;0.50;0.50;;;9.20;99.90;;;;;;5032109;28;20124;-79
2022/05/05 06:15:44;;;;;;;0.38;0.38;;;9.20;99.90;;;;;;5047818;28;20106;-79
2022/05/05 06:18:10;;;;;;;1.13;1.13;;;9.30;99.90;;;;;;5034715;28;20144;-79
2022/05/05 06:20:40;;;;;;;0.30;0.30;;;9.40;99.90;;;;;;5050700;28;20037;-80
2022/05/05 06:23:09;;;;;;;3.85;0.63;;;9.50;99.90;;;;;;5047857;28;20041;-78
2022/05/05 06:25:34;;;;;;;0.40;0.40;;;9.60;99.90;;;;;;5017426;28;20176;-79
2022/05/05 06:28:00;;;;;;;0.40;0.40;;;9.70;99.90;;;;;;5047956;28;20053;-79
2022/05/05 06:30:26;;;;;;;0.43;0.43;;;9.80;99.90;;;;;;5017761;28;20091;-80
2022/05/05 06:32:53;;;;;;;0.65;0.65;;;9.90;99.90;;;;;;5016627;28;20083;-78
2022/05/05 06:35:20;;;;;;;0.50;0.50;;;;;;;;;;5050941;28;20041;-77
2022/05/05 06:37:52;;;;;;;0.30;0.30;;;10.10;99.90;;;;;;5041498;28;20076;-79
2022/05/05 06:40:18;;;;;;;0.40;0.40;;;10.30;99.90;;;;;;5024404;28;20080;-79
2022/05/05 06:42:45;;;;;;;0.20;0.20;;;10.40;99.90;;;;;;5008190;28;20045;-81
2022/05/05 06:45:16;;;;;;;0.30;0.30;;;10.50;99.90;;;;;;5033778;28;20124;-79
2022/05/05 06:47:42;;;;;;;0.40;0.40;;;10.70;99.90;;;;;;5011051;28;20454;-78
2022/05/05 06:50:08;;;;;;;0.45;0.45;;;10.70;99.90;;;;;;5031995;28;20036;-80
2022/05/05 06:52:34;;;;;;;;;;;10.80;99.90;;;;;;5032643;28;20127;-79
2022/05/05 06:55:00;;;;;;;0.25;0.25;;;10.80;99.90;;;;;;5045220;28;19995;-79
2022/05/05 06:57:26;;;;;;;0.43;0.43;;;10.90;99.90;;;;;;5029482;28;20099;-79
2022/05/05 06:59:52;;;;;;;;;;;11.10;99.90;;;;;;5031389;28;20390;-78
2022/05/05 07:02:18;;;;;;;0.32;0.32;;;11.10;99.90;;;;;;5041696;28;19916;-80
2022/05/05 07:07:31;;;;;;;0.43;0.43;;;11.20;99.90;;;;;;5049765;28;20045;-80
2022/05/05 07:12:42;;;;;;;0.40;0.40;;;11.40;99.90;;;;;;5031213;28;20058;-79
2022/05/05 07:15:08;;;;;;;0.50;0.50;;;11.60;99.90;;;;;;5050442;28;20052;-79
2022/05/05 07:17:34;;;;;;;0.32;0.32;;;11.70;99.90;;;;;;5013703;28;20368;-79
2022/05/05 07:20:00;;;;;;;0.40;0.40;;;11.80;99.90;;;;;;5033630;28;20114;-79
2022/05/05 07:22:25;;;;;;;0.30;0.30;;;11.90;99.90;;;;;;5031380;28;20061;-79
2022/05/05 07:24:51;;;;;;;;;;;12.00;99.90;;;;;;5031244;28;20044;-77
2022/05/05 07:27:17;;;;;;;0.43;0.43;;;12.20;99.90;;;;;;5001905;28;19928;-79
2022/05/05 07:29:44;;;;;;;1.02;0.73;;;12.30;99.90;;;;;;5032163;28;20049;-79
2022/05/05 07:32:10;;;;;;;0.35;0.35;;;12.40;99.90;;;;;;5032651;28;20401;-78
2022/05/05 07:34:39;;;;;;;0.38;0.38;;;12.10;99.90;;;;;;5025910;28;20124;-78
2022/05/05 07:37:05;;;;;;;0.50;0.50;;;12.60;99.90;;;;;;5032612;28;20159;-79
2022/05/05 07:39:30;;;;;;;0.30;0.30;;;12.90;99.90;;;;;;5015339;28;20143;-77
2022/05/05 07:41:56;;;;;;;0.30;0.30;;;13.10;99.90;;;;;;5015434;28;20517;-79
2022/05/05 07:44:22;;;;;;;;;;;13.30;99.90;;;;;;5031228;28;20055;-78
2022/05/05 07:46:51;;;;;;;0.52;0.52;;;13.30;99.90;;;;;;5039366;28;19971;-79
2022/05/05 07:49:16;;;;;;;0.95;0.60;;;13.30;99.90;;;;;;5041592;28;20068;-78
2022/05/05 07:51:42;;;;;;;0.50;0.50;;;13.40;99.90;;;;;;5032702;28;20037;-80
2022/05/05 07:56:55;;;;;;;0.30;0.30;;;13.40;99.90;;;;;;5042906;28;20045;-79
2022/05/05 07:59:24;;;;;;;0.20;0.20;;;13.30;99.90;;;;;;5050753;28;20116;-78
2022/05/05 08:01:50;;;;;;;0.70;0.70;;;13.30;99.90;;;;;;5032257;28;20124;-80
2022/05/05 08:04:18;;;;;;;0.73;0.65;;;13.60;99.90;;;;;;5013053;28;20041;-79
2022/05/05 08:06:45;;;;;;;0.68;0.68;;;13.80;99.90;;;;;;5045598;28;20045;-80
2022/05/05 08:09:14;;;;;;;2.08;1.98;;;13.90;99.90;;;;;;5032685;28;20485;-81
2022/05/05 08:11:40;;;;;;;0.40;0.40;;;13.90;99.90;;;;;;5016782;28;20041;-80
2022/05/05 08:14:08;;;;;;;0.30;0.30;;;13.80;99.90;;;;;;5027541;28;20099;-80
2022/05/05 08:16:34;;;;;;;0.55;0.55;;;13.90;99.90;;;;;;5013606;28;20045;-81
2022/05/05 08:19:06;;;;;;;0.30;0.30;;;14.20;99.90;;;;;;5023445;28;20056;-79
2022/05/05 08:21:32;;;;;;;0.40;0.40;;;14.40;99.90;;;;;;5042658;28;20061;-81
2022/05/05 08:29:31;;;;;;;0.60;0.60;;;14.70;99.90;;;;;;5029689;28;20049;-81
2022/05/05 08:31:57;;;;;;;0.40;0.40;;;14.80;99.90;;;;;;5015841;28;20048;-80
2022/05/05 08:34:31;;;;;;;0.40;0.40;;;14.80;99.90;;;;;;5028046;28;20434;-80
2022/05/05 08:36:57;;;;;;;0.55;0.55;;;14.80;99.90;;;;;;5048753;28;20049;-79
2022/05/05 08:39:23;;;;;;;;;;;14.90;99.90;;;;;;5031425;28;20545;-79
2022/05/05 08:41:49;;;;;;;0.40;0.40;;;15.10;99.90;;;;;;5029469;28;20007;-81
2022/05/05 08:44:14;;;;;;;;;;;15.40;99.90;;;;;;5022422;28;20038;-81
2022/05/05 08:46:40;;;;;;;0.40;0.40;;;15.60;99.90;;;;;;5033687;28;19967;-80
2022/05/05 08:49:07;;;;;;;0.30;0.30;;;15.80;99.90;;;;;;5033575;28;20052;-82
2022/05/05 08:51:45;;;;;;;0.80;0.80;;;15.90;99.80;;;;;;5032775;28;20060;-82
2022/05/05 08:54:16;;;;;;;0.50;0.50;;;16.10;99.30;;;;;;5030740;28;20076;-79
2022/05/05 08:56:48;;;;;;;0.98;0.93;;;16.10;98.60;;;;;;5039249;28;20060;-82
2022/05/05 08:59:18;;;;;;;0.28;0.28;;;16.10;99.00;;;;;;5032421;28;20036;-81
2022/05/05 09:01:45;;;;;;;0.60;0.60;;;16.20;99.20;;;;;;5035175;28;20048;-79
2022/05/05 09:04:11;;;;;;;0.30;0.30;;;16.30;99.40;;;;;;5053036;28;20049;-80
2022/05/05 09:06:40;;;;;;;;;;;16.40;99.40;;;;;;5034018;28;20049;-80
2022/05/05 09:09:28;;;;;;;0.30;0.30;;;16.50;97.70;;;;;;5054280;28;19935;-81
2022/05/05 09:12:16;;;;;;;0.40;0.40;;;17.00;96.10;;;;;;5048260;28;20041;-79
2022/05/05 09:14:52;;;;;;;0.20;0.20;;;16.60;98.90;;;;;;5042922;28;20347;-80
2022/05/05 09:17:26;;;;;;;0.35;0.35;;;16.60;97.70;;;;;;5043286;28;20129;-80
2022/05/05 09:19:54;;;;;;;0.30;0.30;;;16.70;94.80;;;;;;5054535;28;20048;-81
2022/05/05 09:22:21;;;;;;;0.30;0.30;;;16.60;96.30;;;;;;5051636;28;20102;-80
2022/05/05 09:24:50;;;;;;;0.60;0.60;;;16.80;96.90;;;;;;5044099;28;20085;-80
2022/05/05 09:27:23;;;;;;;0.40;0.40;;;17.10;96.20;;;;;;5019564;28;20048;-79
2022/05/05 09:30:09;;;;;;;0.30;0.30;;;17.20;96.90;;;;;;5035887;28;20037;-80
2022/05/05 09:32:46;;;;;;;0.45;0.45;;;17.30;96.20;;;;;;5030534;28;20441;-80
2022/05/05 09:35:18;;;;;;;0.40;0.40;;;17.40;95.40;;;;;;5012988;28;20465;-82
2022/05/05 09:37:47;;;;;;;0.30;0.30;;;17.50;95.40;;;;;;5038142;28;20122;-81
2022/05/05 09:40:17;;;;;;;0.30;0.30;;;17.60;93.70;;;;;;5045530;28;20060;-80
2022/05/05 09:42:49;;;;;;;0.55;0.50;;;17.80;95.00;;;;;;5060579;28;20041;-81
2022/05/05 09:45:23;;;;;;;0.47;0.43;;;17.80;93.70;;;;;;5036454;28;20093;-80
2022/05/05 09:47:50;;;;;;;0.40;0.40;;;17.90;95.20;;;;;;5031097;28;20106;-83
2022/05/05 09:50:19;;;;;;;0.40;0.40;;;17.90;95.20;;;;;;5033939;28;20453;-79
2022/05/05 09:58:19;;;;;;;0.47;0.47;;;18.40;94.10;;;;;;5036388;28;20128;-79
2022/05/05 10:01:34;;;;;;;0.45;0.45;;;18.50;94.60;;;;;;5026927;28;20051;-80
2022/05/05 10:04:00;;;;;;;0.30;0.30;;;18.50;93.00;;;;;;5038995;28;20390;-81
2022/05/05 10:06:31;;;;;;;;;;;18.80;91.60;;;;;;5029281;28;20465;-84
2022/05/05 10:09:05;;;;;;;0.40;0.40;;;18.90;91.00;;;;;;5030365;28;19971;-80
2022/05/05 10:11:32;;;;;;;0.28;0.28;;;19.20;92.70;;;;;;5024214;28;20037;-79
2022/05/05 10:14:00;;;;;;;0.20;0.20;;;19.50;92.00;;;;;;5041804;28;20102;-79
2022/05/05 10:16:26;;;;;;;0.60;0.60;;;19.90;91.30;;;;;;5032212;28;20045;-80
2022/05/05 10:18:52;;;;;;;1.23;1.13;;;20.00;91.80;;;;;;5013669;28;20120;-80
2022/05/05 10:21:55;;;;;;;0.25;0.25;;;19.70;90.90;;;;;;5012853;28;20132;-79
2022/05/05 10:24:29;;;;;;;0.63;0.50;;;19.50;90.90;;;;;;5041132;28;20046;-79
2022/05/05 10:26:57;;;;;;;0.55;0.55;;;19.50;90.50;;;;;;5047178;28;20045;-79
2022/05/05 10:29:33;;;;;;;0.50;0.50;;;19.50;89.60;;;;;;5027124;28;20047;-80
2022/05/05 10:32:06;;;;;;;0.30;0.30;;;19.40;90.70;;;;;;5038636;28;20059;-80
2022/05/05 10:34:32;;;;;;;2.92;0.40;;;19.50;90.10;;;;;;5025694;28;20162;-80
2022/05/05 10:37:04;;;;;;;0.20;0.20;;;19.80;88.40;;;;;;5043609;28;20106;-81
2022/05/05 10:40:10;;;;;;;0.68;0.68;;;20.10;87.30;;;;;;5042175;28;20120;-83
2022/05/05 10:42:50;;;;;;;0.30;0.30;;;20.30;86.80;;;;;;5050717;28;20064;-81
2022/05/05 10:45:34;;;;;;;0.32;0.32;;;20.40;82.30;;;;;;5038670;28;20041;-80
2022/05/05 10:48:06;;;;;;;0.30;0.30;;;20.40;85.10;;;;;;5048400;28;20032;-78
2022/05/05 10:53:40;;;;;;;0.45;0.45;;;20.60;84.50;;;;;;5049519;28;20037;-79
2022/05/05 10:56:31;;;;;;;0.20;0.20;;;20.70;87.50;;;;;;5050449;28;20037;-80
2022/05/05 10:59:02;;;;;;;0.57;0.50;;;20.20;83.10;;;;;;5044008;28;20037;-80
2022/05/05 11:01:31;;;;;;;2.03;1.05;;;19.70;82.90;;;;;;5045235;28;20068;-80
2022/05/05 11:04:07;;;;;;;0.77;0.77;;;19.50;82.50;;;;;;5026479;28;20114;-81
2022/05/05 11:06:33;;;;;;;0.40;0.40;;;19.60;84.00;;;;;;5040581;28;20056;-80
2022/05/05 11:08:59;;;;;;;0.32;0.32;;;19.80;85.70;;;;;;5050329;28;20036;-79
2022/05/05 11:11:44;;;;;;;0.52;0.40;;;20.00;82.70;;;;;;5041359;28;20478;-80
2022/05/05 11:23:49;;;;;;;0.20;0.20;;;19.80;82.00;;;;;;5046784;28;20085;-80
2022/05/05 11:26:16;;;;;;;;;;;19.90;84.50;;;;;;5047881;28;20044;-82
2022/05/05 11:28:42;;;;;;;0.38;0.38;;;20.00;84.60;;;;;;5044208;28;19991;-77
2022/05/05 11:31:19;;;;;;;0.30;0.30;;;20.00;84.00;;;;;;5045336;28;20056;-82
2022/05/05 11:34:04;;;;;;;0.75;0.70;;;20.00;85.00;;;;;;5046340;28;20045;-77
2022/05/05 11:36:35;;;;;;;0.90;0.60;;;19.90;81.70;;;;;;5046963;28;20067;-79
2022/05/05 11:39:02;;;;;;;1.17;1.00;;;19.70;83.70;;;;;;5047088;28;20406;-79
2022/05/05 11:41:29;;;;;;;0.55;0.55;;;19.60;82.20;;;;;;5028284;28;20048;-77
2022/05/05 11:46:39;;;;;;;1.48;0.60;;;19.40;83.70;;;;;;5037285;28;20467;-75
2022/05/05 11:49:06;;;;;;;1.00;1.00;;;19.40;83.50;;;;;;5040741;28;20045;-75
2022/05/05 11:51:36;;;;;;;2.85;1.33;;;19.40;85.10;;;;;;5046402;28;20041;-77
2022/05/05 11:54:07;;;;;;;0.57;0.57;;;19.60;84.60;;;;;;5023935;28;20759;-75
2022/05/05 11:56:42;;;;;;;1.05;1.05;;;19.70;84.00;;;;;;5038876;28;20045;-76
2022/05/05 12:02:00;;;;;;;0.25;0.25;;;19.70;83.00;;;;;;5032282;28;20128;-77
2022/05/05 12:04:28;;;;;;;0.70;0.70;;;19.70;83.10;;;;;;5025743;28;20055;-77
2022/05/05 12:06:54;;;;;;;0.65;0.65;;;19.70;83.60;;;;;;5029282;28;20414;-76
2022/05/05 12:09:20;;;;;;;0.47;0.47;;;19.90;84.20;;;;;;5029789;28;20049;-77
2022/05/05 12:11:46;;;;;;;0.22;0.22;;;20.20;81.90;;;;;;5030669;28;20474;-76
2022/05/05 12:14:18;;;;;;;0.35;0.35;;;20.50;82.90;;;;;;5049020;28;20041;-76
2022/05/05 12:16:44;;;;;;;0.60;0.60;;;20.70;82.50;;;;;;5030185;28;20033;-78
2022/05/05 12:19:14;;;;;;;0.20;0.20;;;20.80;82.60;;;;;;5042232;28;20509;-77
2022/05/05 12:21:54;;;;;;;0.55;0.55;;;20.80;79.10;;;;;;5026038;28;20398;-76
2022/05/05 12:24:24;;;;;;;0.30;0.30;;;21.00;81.50;;;;;;5021904;28;20064;-79
2022/05/05 12:27:07;;;;;;;0.35;0.35;;;21.40;82.60;;;;;;5035003;28;20090;-74
2022/05/05 12:29:38;;;;;;;0.65;0.65;;;21.90;78.70;;;;;;5012011;28;20080;-77
2022/05/05 12:32:09;;;;;;;0.20;0.20;;;21.70;77.80;;;;;;5033772;28;20043;-77
2022/05/05 12:34:37;;;;;;;0.35;0.35;;;21.40;78.00;;;;;;5024606;28;20072;-77
2022/05/05 12:37:29;;;;;;;2.92;1.73;;;21.10;77.80;;;;;;5051695;28;20045;-76
2022/05/05 12:40:03;;;;;;;0.20;0.20;;;20.80;76.80;;;;;;5043348;28;20422;-76
2022/05/05 12:42:39;;;;;;;0.30;0.30;;;20.70;77.30;;;;;;5046128;28;20115;-77
2022/05/05 12:45:09;;;;;;;0.40;0.40;;;20.70;76.80;;;;;;5046655;28;20041;-77
2022/05/05 12:47:44;;;;;;;0.43;0.43;;;20.90;77.40;;;;;;5046332;28;20041;-76
2022/05/05 12:50:30;;;;;;;1.08;0.50;;;21.30;79.10;;;;;;5054241;28;20355;-79
2022/05/05 13:01:23;;;;;;;1.20;1.15;;;21.30;75.10;;;;;;5018884;28;20057;-75
2022/05/05 13:03:49;;;;;;;0.65;0.65;;;21.40;75.30;;;;;;5052818;28;20458;-77
2022/05/05 13:06:15;;;;;;;0.65;0.65;;;21.30;76.70;;;;;;5027545;28;20126;-77
2022/05/05 13:08:41;;;;;;;0.65;0.65;;;21.50;76.70;;;;;;5046305;28;20399;-76
2022/05/05 13:11:07;;;;;;;0.20;0.20;;;21.70;77.60;;;;;;5046906;28;20048;-77
2022/05/05 13:13:32;;;;;;;1.63;0.88;;;21.80;76.30;;;;;;5051955;28;20052;-77
2022/05/05 13:15:58;;;;;;;0.77;0.77;;;21.70;77.90;;;;;;5031570;28;20044;-76
2022/05/05 13:18:24;;;;;;;0.40;0.40;;;21.40;76.10;;;;;;5048383;28;20119;-76
2022/05/05 13:20:50;;;;;;;0.30;0.30;;;21.20;76.60;;;;;;5052011;28;20401;-77
2022/05/05 13:23:15;;;;;;;0.47;0.38;;;21.10;76.10;;;;;;5028473;28;20037;-77
2022/05/05 13:25:42;;;;;;;0.47;0.47;;;21.20;77.30;;;;;;5044882;28;20475;-76
2022/05/05 13:28:08;;;;;;;0.10;0.10;;;21.40;76.20;;;;;;5026931;28;20056;-77
2022/05/05 13:30:33;;;;;;;0.28;0.28;;;21.80;77.10;;;;;;5023417;28;20449;-79
2022/05/05 13:33:00;;;;;;;0.20;0.20;;;22.00;75.40;;;;;;5049680;28;20074;-77
2022/05/05 13:35:26;;;;;;;0.20;0.20;;;22.60;76.10;;;;;;5028635;28;20045;-77
2022/05/05 13:37:53;;;;;;;1.08;0.90;;;22.90;76.70;;;;;;5050900;28;20110;-76
2022/05/05 13:40:20;;;;;;;0.40;0.40;;;22.80;73.60;;;;;;5043206;28;20044;-78
2022/05/05 13:42:46;;;;;;;0.20;0.20;;;22.60;71.60;;;;;;5034662;28;20052;-77
2022/05/05 13:45:12;;;;;;;1.02;1.02;;;22.20;70.90;;;;;;5050071;28;20037;-79
2022/05/05 13:47:38;;;;;;;0.20;0.20;;;22.10;73.60;;;;;;5045782;28;20501;-79
2022/05/05 13:50:04;;;;;;;1.33;0.63;;;22.10;72.40;;;;;;5051830;28;20037;-78
2022/05/05 13:52:30;;;;;;;0.60;0.60;;;22.00;71.70;;;;;;5032956;28;20037;-78
2022/05/05 13:54:56;;;;;;;1.35;1.00;;;21.90;72.20;;;;;;5032621;28;20124;-79
2022/05/05 13:57:22;;;;;;;0.40;0.40;;;21.70;70.80;;;;;;5047591;28;20037;-78